createdAt,value
2015-10-25T00:00:02.554Z,3.96
2015-10-25T00:00:14.867Z,4.02
2015-10-25T00:00:27.164Z,4.02
2015-10-25T00:00:39.461Z,3.95
2015-10-25T00:00:51.777Z,3.95
2015-10-25T00:01:04.074Z,3.95
2015-10-25T00:01:16.371Z,4.01
2015-10-25T00:01:28.683Z,3.96
2015-10-25T00:01:40.996Z,3.87
2015-10-25T00:01:53.326Z,3.87
2015-10-25T00:02:05.623Z,3.95
2015-10-25T00:02:17.935Z,3.88
2015-10-25T00:02:30.232Z,3.88
2015-10-25T00:02:42.529Z,3.92
2015-10-25T00:02:54.829Z,3.87
2015-10-25T00:03:07.126Z,3.86
2015-10-25T00:03:19.438Z,3.84
2015-10-25T00:03:31.782Z,3.94
2015-10-25T00:03:44.110Z,3.86
2015-10-25T00:03:56.426Z,3.88
2015-10-25T00:04:08.738Z,3.87
2015-10-25T00:04:21.035Z,3.88
2015-10-25T00:04:33.332Z,3.86
2015-10-25T00:04:45.629Z,3.91
2015-10-25T00:04:57.929Z,3.84
2015-10-25T00:05:10.241Z,3.83
2015-10-25T00:05:22.569Z,3.81
2015-10-25T00:05:34.897Z,3.86
2015-10-25T00:05:47.210Z,3.84
2015-10-25T00:05:59.509Z,3.87
2015-10-25T00:06:11.806Z,3.92
2015-10-25T00:06:24.118Z,3.91
2015-10-25T00:06:36.415Z,3.8
2015-10-25T00:06:48.712Z,3.91
2015-10-25T00:07:01.012Z,3.92
2015-10-25T00:07:13.340Z,3.92
2015-10-25T00:07:25.652Z,3.95
2015-10-25T00:07:37.965Z,3.88
2015-10-25T00:07:50.262Z,3.94
2015-10-25T00:08:02.577Z,3.86
2015-10-25T00:08:14.890Z,3.91
2015-10-25T00:08:27.187Z,3.96
2015-10-25T00:08:39.484Z,3.88
2015-10-25T00:08:51.796Z,3.94
2015-10-25T00:09:04.126Z,3.88
2015-10-25T00:09:16.454Z,3.92
2015-10-25T00:09:28.767Z,3.91
2015-10-25T00:09:41.064Z,3.86
2015-10-25T00:09:53.376Z,3.83
2015-10-25T00:10:05.676Z,3.86
2015-10-25T00:10:17.973Z,3.88
2015-10-25T00:10:30.270Z,3.92
2015-10-25T00:10:42.582Z,3.92
2015-10-25T00:10:54.895Z,3.81
2015-10-25T00:11:07.225Z,3.84
2015-10-25T00:11:19.553Z,3.94
2015-10-25T00:11:31.834Z,3.92
2015-10-25T00:11:44.147Z,3.88
2015-10-25T00:11:56.444Z,3.91
2015-10-25T00:12:08.760Z,3.88
2015-10-25T00:12:21.057Z,3.92
2015-10-25T00:12:33.370Z,3.87
2015-10-25T00:12:45.713Z,3.87
2015-10-25T00:12:58.041Z,3.83
2015-10-25T00:13:10.372Z,3.91
2015-10-25T00:13:22.668Z,3.94
2015-10-25T00:13:34.965Z,3.91
2015-10-25T00:13:47.278Z,3.84
2015-10-25T00:13:59.575Z,3.91
2015-10-25T00:14:11.890Z,3.94
2015-10-25T00:14:24.203Z,3.95
2015-10-25T00:14:36.515Z,3.86
2015-10-25T00:14:48.843Z,3.88
2015-10-25T00:15:01.140Z,3.86
2015-10-25T00:15:13.456Z,3.88
2015-10-25T00:15:25.753Z,3.94
2015-10-25T00:15:38.065Z,3.87
2015-10-25T00:15:50.362Z,3.92
2015-10-25T00:16:02.659Z,3.86
2015-10-25T00:16:14.973Z,3.86
2015-10-25T00:16:27.301Z,3.98
2015-10-25T00:16:39.630Z,3.98
2015-10-25T00:16:51.926Z,3.86
2015-10-25T00:17:04.239Z,3.96
2015-10-25T00:17:16.539Z,3.87
2015-10-25T00:17:28.836Z,3.84
2015-10-25T00:17:41.148Z,3.84
2015-10-25T00:17:53.445Z,3.84
2015-10-25T00:18:05.773Z,3.86
2015-10-25T00:18:18.089Z,3.95
2015-10-25T00:18:30.417Z,3.84
2015-10-25T00:18:42.729Z,3.91
2015-10-25T00:18:55.026Z,3.87
2015-10-25T00:19:07.323Z,3.86
2015-10-25T00:19:19.639Z,3.88
2015-10-25T00:19:31.935Z,3.91
2015-10-25T00:19:44.232Z,3.88
2015-10-25T00:19:56.560Z,3.86
2015-10-25T00:20:08.889Z,3.88
2015-10-25T00:20:21.188Z,3.91
2015-10-25T00:20:33.501Z,3.94
2015-10-25T00:20:45.798Z,3.88
2015-10-25T00:20:58.110Z,3.86
2015-10-25T00:21:10.407Z,3.88
2015-10-25T00:21:22.706Z,3.87
2015-10-25T00:21:35.019Z,3.88
2015-10-25T00:21:47.347Z,3.83
2015-10-25T00:21:59.675Z,3.83
2015-10-25T00:22:11.987Z,3.94
2015-10-25T00:22:24.287Z,3.84
2015-10-25T00:22:36.584Z,3.94
2015-10-25T00:22:48.881Z,3.94
2015-10-25T00:23:01.178Z,3.92
2015-10-25T00:23:13.492Z,3.91
2015-10-25T00:23:25.789Z,3.94
2015-10-25T00:23:38.117Z,3.94
2015-10-25T00:23:50.445Z,3.91
2015-10-25T00:24:02.758Z,3.92
2015-10-25T00:24:15.059Z,3.8
2015-10-25T00:24:27.371Z,3.87
2015-10-25T00:24:39.684Z,3.77
2015-10-25T00:24:51.981Z,3.84
2015-10-25T00:25:04.293Z,3.88
2015-10-25T00:25:16.593Z,3.76
2015-10-25T00:25:28.921Z,3.84
2015-10-25T00:25:41.249Z,3.88
2015-10-25T00:25:53.546Z,3.83
2015-10-25T00:26:05.859Z,3.83
2015-10-25T00:26:18.157Z,3.84
2015-10-25T00:26:30.469Z,3.86
2015-10-25T00:26:42.766Z,3.94
2015-10-25T00:26:54.328Z,3.81
2015-10-25T00:27:06.641Z,3.81
2015-10-25T00:27:18.973Z,3.84
2015-10-25T00:27:31.301Z,3.86
2015-10-25T00:27:43.598Z,3.84
2015-10-25T00:27:55.911Z,3.81
2015-10-25T00:28:08.207Z,3.84
2015-10-25T00:28:20.507Z,3.87
2015-10-25T00:28:32.820Z,3.8
2015-10-25T00:28:45.117Z,3.78
2015-10-25T00:28:57.429Z,3.74
2015-10-25T00:29:09.757Z,3.74
2015-10-25T00:29:22.229Z,3.77
2015-10-25T00:29:34.542Z,3.74
2015-10-25T00:29:46.838Z,3.7
2015-10-25T00:29:59.135Z,3.83
2015-10-25T00:30:11.432Z,3.77
2015-10-25T00:30:23.731Z,3.81
2015-10-25T00:30:36.028Z,3.81
2015-10-25T00:30:48.340Z,3.8
2015-10-25T00:31:00.653Z,3.81
2015-10-25T00:31:12.997Z,3.77
2015-10-25T00:31:25.297Z,3.74
2015-10-25T00:31:37.593Z,3.83
2015-10-25T00:31:49.890Z,3.77
2015-10-25T00:32:02.203Z,3.84
2015-10-25T00:32:14.500Z,3.78
2015-10-25T00:32:26.799Z,3.83
2015-10-25T00:32:39.111Z,3.76
2015-10-25T00:32:51.424Z,3.81
2015-10-25T00:33:03.720Z,3.8
2015-10-25T00:33:16.033Z,3.77
2015-10-25T00:33:28.333Z,3.8
2015-10-25T00:33:40.630Z,3.78
2015-10-25T00:33:52.927Z,3.8
2015-10-25T00:34:05.239Z,3.83
2015-10-25T00:34:17.552Z,3.84
2015-10-25T00:34:29.883Z,3.78
2015-10-25T00:34:42.195Z,3.83
2015-10-25T00:34:54.523Z,3.83
2015-10-25T00:35:06.836Z,3.88
2015-10-25T00:35:19.133Z,3.76
2015-10-25T00:35:31.433Z,3.78
2015-10-25T00:35:43.745Z,3.86
2015-10-25T00:35:56.042Z,3.74
2015-10-25T00:36:08.354Z,3.74
2015-10-25T00:36:20.683Z,3.77
2015-10-25T00:36:33.014Z,3.74
2015-10-25T00:36:45.311Z,3.78
2015-10-25T00:36:57.623Z,3.78
2015-10-25T00:37:09.920Z,3.7
2015-10-25T00:37:22.217Z,3.77
2015-10-25T00:37:34.526Z,3.77
2015-10-25T00:37:46.823Z,3.78
2015-10-25T00:37:59.136Z,3.63
2015-10-25T00:38:11.464Z,3.65
2015-10-25T00:38:23.776Z,3.73
2015-10-25T00:38:36.078Z,3.68
2015-10-25T00:38:48.375Z,3.69
2015-10-25T00:39:00.687Z,3.66
2015-10-25T00:39:12.984Z,3.68
2015-10-25T00:39:25.281Z,3.7
2015-10-25T00:39:37.567Z,3.68
2015-10-25T00:39:49.879Z,3.68
2015-10-25T00:40:02.207Z,3.66
2015-10-25T00:40:14.520Z,3.68
2015-10-25T00:40:26.832Z,3.68
2015-10-25T00:40:39.117Z,3.7
2015-10-25T00:40:51.430Z,3.78
2015-10-25T00:41:03.727Z,3.77
2015-10-25T00:41:16.024Z,3.68
2015-10-25T00:41:28.336Z,3.7
2015-10-25T00:41:40.652Z,3.66
2015-10-25T00:41:52.980Z,3.68
2015-10-25T00:42:05.293Z,3.69
2015-10-25T00:42:17.590Z,3.68
2015-10-25T00:42:29.902Z,3.66
2015-10-25T00:42:42.193Z,3.73
2015-10-25T00:42:54.490Z,3.66
2015-10-25T00:43:06.802Z,3.77
2015-10-25T00:43:19.115Z,3.73
2015-10-25T00:43:31.443Z,3.74
2015-10-25T00:43:43.768Z,3.66
2015-10-25T00:43:56.081Z,3.69
2015-10-25T00:44:08.393Z,3.74
2015-10-25T00:44:20.674Z,3.68
2015-10-25T00:44:32.987Z,3.66
2015-10-25T00:44:45.282Z,3.69
2015-10-25T00:44:57.579Z,3.76
2015-10-25T00:45:09.891Z,3.73
2015-10-25T00:45:22.204Z,3.69
2015-10-25T00:45:34.532Z,3.65
2015-10-25T00:45:46.841Z,3.74
2015-10-25T00:45:59.154Z,3.7
2015-10-25T00:46:11.451Z,3.68
2015-10-25T00:46:23.763Z,3.66
2015-10-25T00:46:36.060Z,3.7
2015-10-25T00:46:48.355Z,3.68
2015-10-25T00:47:00.667Z,3.7
2015-10-25T00:47:12.980Z,3.76
2015-10-25T00:47:25.308Z,3.7
2015-10-25T00:47:37.621Z,3.69
2015-10-25T00:47:49.917Z,3.73
2015-10-25T00:48:02.214Z,3.68
2015-10-25T00:48:14.527Z,3.77
2015-10-25T00:48:26.824Z,3.65
2015-10-25T00:48:39.121Z,3.69
2015-10-25T00:48:51.434Z,3.69
2015-10-25T00:49:03.762Z,3.7
2015-10-25T00:49:16.075Z,3.7
2015-10-25T00:49:28.372Z,3.73
2015-10-25T00:49:40.668Z,3.7
2015-10-25T00:49:52.966Z,3.66
2015-10-25T00:50:05.279Z,3.66
2015-10-25T00:50:17.576Z,3.7
2015-10-25T00:50:29.888Z,3.74
2015-10-25T00:50:42.201Z,3.74
2015-10-25T00:50:54.639Z,3.7
2015-10-25T00:51:06.952Z,3.78
2015-10-25T00:51:19.264Z,3.77
2015-10-25T00:51:31.577Z,3.78
2015-10-25T00:51:43.874Z,3.69
2015-10-25T00:51:56.171Z,3.77
2015-10-25T00:52:08.468Z,3.73
2015-10-25T00:52:20.781Z,3.78
2015-10-25T00:52:33.109Z,3.76
2015-10-25T00:52:45.421Z,3.8
2015-10-25T00:52:57.752Z,3.8
2015-10-25T00:53:10.048Z,3.77
2015-10-25T00:53:22.345Z,3.78
2015-10-25T00:53:34.658Z,3.83
2015-10-25T00:53:46.955Z,3.86
2015-10-25T00:53:59.269Z,3.86
2015-10-25T00:54:11.566Z,3.77
2015-10-25T00:54:23.894Z,3.77
2015-10-25T00:54:36.222Z,3.77
2015-10-25T00:54:48.535Z,3.81
2015-10-25T00:55:00.849Z,3.84
2015-10-25T00:55:13.146Z,3.81
2015-10-25T00:55:25.443Z,3.7
2015-10-25T00:55:37.756Z,3.8
2015-10-25T00:55:50.052Z,3.74
2015-10-25T00:56:02.351Z,3.76
2015-10-25T00:56:14.679Z,3.7
2015-10-25T00:56:26.992Z,3.69
2015-10-25T00:56:39.351Z,3.78
2015-10-25T00:56:51.648Z,3.7
2015-10-25T00:57:03.931Z,3.81
2015-10-25T00:57:16.228Z,3.77
2015-10-25T00:57:28.541Z,3.76
2015-10-25T00:57:40.838Z,3.78
2015-10-25T00:57:53.135Z,3.74
2015-10-25T00:58:05.449Z,3.77
2015-10-25T00:58:17.777Z,3.77
2015-10-25T00:58:30.090Z,3.7
2015-10-25T00:58:42.387Z,3.78
2015-10-25T00:58:54.683Z,3.77
2015-10-25T00:59:06.998Z,3.78
2015-10-25T00:59:19.295Z,3.8
2015-10-25T00:59:31.607Z,3.77
2015-10-25T00:59:43.904Z,3.74
2015-10-25T00:59:56.217Z,3.78
2015-10-25T01:00:08.548Z,3.78
2015-10-25T01:00:20.845Z,3.74
2015-10-25T01:00:33.157Z,3.83
2015-10-25T01:00:45.454Z,3.74
2015-10-25T01:00:57.751Z,3.76
2015-10-25T01:01:10.050Z,3.65
2015-10-25T01:01:22.362Z,3.78
2015-10-25T01:01:34.659Z,3.74
2015-10-25T01:01:46.987Z,3.76
2015-10-25T01:01:59.315Z,3.69
2015-10-25T01:02:11.630Z,3.69
2015-10-25T01:02:23.942Z,3.73
2015-10-25T01:02:36.239Z,3.69
2015-10-25T01:02:48.552Z,3.63
2015-10-25T01:03:00.849Z,3.68
2015-10-25T01:03:13.181Z,3.76
2015-10-25T01:03:25.493Z,3.7
2015-10-25T01:03:37.821Z,3.7
2015-10-25T01:03:50.134Z,3.68
2015-10-25T01:04:02.446Z,3.73
2015-10-25T01:04:14.761Z,3.7
2015-10-25T01:04:27.058Z,3.7
2015-10-25T01:04:39.355Z,3.69
2015-10-25T01:04:51.667Z,3.73
2015-10-25T01:05:03.964Z,3.68
2015-10-25T01:05:16.280Z,3.69
2015-10-25T01:05:28.592Z,3.59
2015-10-25T01:05:40.920Z,3.59
2015-10-25T01:05:53.233Z,3.6
2015-10-25T01:06:05.530Z,3.65
2015-10-25T01:06:17.844Z,3.63
2015-10-25T01:06:30.141Z,3.59
2015-10-25T01:06:42.438Z,3.63
2015-10-25T01:06:54.750Z,3.55
2015-10-25T01:07:07.047Z,3.63
2015-10-25T01:07:19.379Z,3.53
2015-10-25T01:07:31.692Z,3.6
2015-10-25T01:07:44.004Z,3.66
2015-10-25T01:07:56.286Z,3.65
2015-10-25T01:08:08.598Z,3.63
2015-10-25T01:08:20.881Z,3.6
2015-10-25T01:08:33.178Z,3.59
2015-10-25T01:08:45.459Z,3.63
2015-10-25T01:08:57.834Z,3.63
2015-10-25T01:09:10.131Z,3.63
2015-10-25T01:09:22.431Z,3.63
2015-10-25T01:09:34.728Z,3.58
2015-10-25T01:09:47.025Z,3.56
2015-10-25T01:09:59.322Z,3.65
2015-10-25T01:10:11.634Z,3.63
2015-10-25T01:10:23.950Z,3.6
2015-10-25T01:10:36.278Z,3.58
2015-10-25T01:10:48.575Z,3.63
2015-10-25T01:11:00.872Z,3.59
2015-10-25T01:11:13.169Z,3.62
2015-10-25T01:11:25.484Z,3.63
2015-10-25T01:11:37.781Z,3.63
2015-10-25T01:11:50.093Z,3.63
2015-10-25T01:12:02.390Z,3.63
2015-10-25T01:12:14.718Z,3.56
2015-10-25T01:12:27.049Z,3.63
2015-10-25T01:12:39.377Z,3.51
2015-10-25T01:12:51.674Z,3.51
2015-10-25T01:13:03.986Z,3.47
2015-10-25T01:13:16.283Z,3.56
2015-10-25T01:13:28.582Z,3.58
2015-10-25T01:13:40.894Z,3.6
2015-10-25T01:13:53.191Z,3.55
2015-10-25T01:14:05.519Z,3.59
2015-10-25T01:14:17.847Z,3.65
2015-10-25T01:14:30.164Z,3.6
2015-10-25T01:14:42.461Z,3.59
2015-10-25T01:14:54.758Z,3.51
2015-10-25T01:15:07.055Z,3.53
2015-10-25T01:15:19.367Z,3.5
2015-10-25T01:15:31.666Z,3.53
2015-10-25T01:15:43.963Z,3.55
2015-10-25T01:15:56.291Z,3.51
2015-10-25T01:16:08.603Z,3.5
2015-10-25T01:16:20.916Z,3.58
2015-10-25T01:16:33.216Z,3.58
2015-10-25T01:16:45.513Z,3.55
2015-10-25T01:16:57.841Z,3.55
2015-10-25T01:17:10.138Z,3.55
2015-10-25T01:17:22.466Z,3.51
2015-10-25T01:17:34.765Z,3.55
2015-10-25T01:17:47.093Z,3.59
2015-10-25T01:17:59.421Z,3.48
2015-10-25T01:18:11.718Z,3.58
2015-10-25T01:18:24.030Z,3.5
2015-10-25T01:18:36.331Z,3.5
2015-10-25T01:18:48.628Z,3.5
2015-10-25T01:19:00.925Z,3.55
2015-10-25T01:19:13.222Z,3.51
2015-10-25T01:19:25.534Z,3.58
2015-10-25T01:19:37.864Z,3.55
2015-10-25T01:19:50.177Z,3.53
2015-10-25T01:20:02.489Z,3.51
2015-10-25T01:20:14.786Z,3.53
2015-10-25T01:20:27.099Z,3.5
2015-10-25T01:20:39.399Z,3.55
2015-10-25T01:20:51.696Z,3.56
2015-10-25T01:21:03.992Z,3.55
2015-10-25T01:21:16.305Z,3.5
2015-10-25T01:21:28.633Z,3.59
2015-10-25T01:21:40.963Z,3.53
2015-10-25T01:21:53.276Z,3.55
2015-10-25T01:22:05.573Z,3.53
2015-10-25T01:22:17.885Z,3.59
2015-10-25T01:22:30.186Z,3.56
2015-10-25T01:22:42.483Z,3.56
2015-10-25T01:22:54.780Z,3.6
2015-10-25T01:23:07.092Z,3.5
2015-10-25T01:23:19.420Z,3.48
2015-10-25T01:23:31.735Z,3.53
2015-10-25T01:23:44.032Z,3.51
2015-10-25T01:23:56.329Z,3.53
2015-10-25T01:24:08.641Z,3.58
2015-10-25T01:24:20.938Z,3.5
2015-10-25T01:24:33.238Z,3.53
2015-10-25T01:24:45.535Z,3.51
2015-10-25T01:24:57.847Z,3.5
2015-10-25T01:25:10.175Z,3.55
2015-10-25T01:25:22.503Z,3.53
2015-10-25T01:25:34.803Z,3.59
2015-10-25T01:25:47.131Z,3.51
2015-10-25T01:25:59.428Z,3.53
2015-10-25T01:26:11.725Z,3.55
2015-10-25T01:26:24.038Z,3.6
2015-10-25T01:26:36.337Z,3.55
2015-10-25T01:26:48.665Z,3.51
2015-10-25T01:27:00.993Z,3.56
2015-10-25T01:27:13.321Z,3.5
2015-10-25T01:27:25.649Z,3.45
2015-10-25T01:27:37.965Z,3.56
2015-10-25T01:27:50.261Z,3.53
2015-10-25T01:28:02.558Z,3.48
2015-10-25T01:28:14.871Z,3.55
2015-10-25T01:28:27.183Z,3.56
2015-10-25T01:28:39.530Z,3.53
2015-10-25T01:28:51.843Z,3.51
2015-10-25T01:29:04.155Z,3.53
2015-10-25T01:29:16.452Z,3.53
2015-10-25T01:29:28.749Z,3.44
2015-10-25T01:29:41.048Z,3.56
2015-10-25T01:29:53.360Z,3.5
2015-10-25T01:30:05.657Z,3.5
2015-10-25T01:30:17.970Z,3.53
2015-10-25T01:30:30.298Z,3.55
2015-10-25T01:30:42.613Z,3.53
2015-10-25T01:30:54.754Z,3.58
2015-10-25T01:31:07.051Z,3.53
2015-10-25T01:31:19.348Z,3.55
2015-10-25T01:31:31.660Z,3.51
2015-10-25T01:31:43.960Z,3.53
2015-10-25T01:31:56.257Z,3.56
2015-10-25T01:32:08.585Z,3.53
2015-10-25T01:32:20.897Z,3.62
2015-10-25T01:32:33.226Z,3.5
2015-10-25T01:32:45.525Z,3.58
2015-10-25T01:32:57.822Z,3.53
2015-10-25T01:33:10.135Z,3.53
2015-10-25T01:33:22.432Z,3.55
2015-10-25T01:33:34.744Z,3.55
2015-10-25T01:33:47.044Z,3.55
2015-10-25T01:33:59.372Z,3.47
2015-10-25T01:34:11.700Z,3.58
2015-10-25T01:34:23.997Z,3.47
2015-10-25T01:34:36.325Z,3.53
2015-10-25T01:34:48.625Z,3.56
2015-10-25T01:35:00.766Z,3.44
2015-10-25T01:35:13.063Z,3.58
2015-10-25T01:35:25.375Z,3.47
2015-10-25T01:35:37.672Z,3.55
2015-10-25T01:35:50.002Z,3.5
2015-10-25T01:36:02.158Z,3.55
2015-10-25T01:36:14.487Z,3.55
2015-10-25T01:36:26.783Z,3.53
2015-10-25T01:36:39.080Z,3.51
2015-10-25T01:36:51.380Z,3.53
2015-10-25T01:37:03.693Z,3.58
2015-10-25T01:37:15.990Z,3.59
2015-10-25T01:37:28.302Z,3.51
2015-10-25T01:37:40.615Z,3.6
2015-10-25T01:37:52.946Z,3.53
2015-10-25T01:38:05.274Z,3.58
2015-10-25T01:38:17.571Z,3.5
2015-10-25T01:38:29.868Z,3.48
2015-10-25T01:38:42.180Z,3.5
2015-10-25T01:38:54.323Z,3.53
2015-10-25T01:39:06.620Z,3.59
2015-10-25T01:39:18.916Z,3.47
2015-10-25T01:39:31.229Z,3.48
2015-10-25T01:39:43.557Z,3.5
2015-10-25T01:39:55.888Z,3.55
2015-10-25T01:40:08.185Z,3.55
2015-10-25T01:40:20.482Z,3.53
2015-10-25T01:40:32.779Z,3.56
2015-10-25T01:40:45.091Z,3.56
2015-10-25T01:40:57.391Z,3.53
2015-10-25T01:41:09.688Z,3.55
2015-10-25T01:41:22.001Z,3.55
2015-10-25T01:41:34.313Z,3.51
2015-10-25T01:41:46.641Z,3.59
2015-10-25T01:41:58.956Z,3.53
2015-10-25T01:42:11.253Z,3.51
2015-10-25T01:42:23.549Z,3.6
2015-10-25T01:42:35.846Z,3.56
2015-10-25T01:42:48.143Z,3.56
2015-10-25T01:43:00.427Z,3.5
2015-10-25T01:43:12.724Z,3.58
2015-10-25T01:43:25.021Z,3.51
2015-10-25T01:43:37.349Z,3.5
2015-10-25T01:43:49.648Z,3.51
2015-10-25T01:44:01.945Z,3.51
2015-10-25T01:44:14.242Z,3.55
2015-10-25T01:44:26.539Z,3.53
2015-10-25T01:44:38.851Z,3.56
2015-10-25T01:44:51.152Z,3.5
2015-10-25T01:45:03.465Z,3.55
2015-10-25T01:45:15.793Z,3.55
2015-10-25T01:45:28.121Z,3.5
2015-10-25T01:45:40.433Z,3.5
2015-10-25T01:45:52.732Z,3.53
2015-10-25T01:46:05.029Z,3.5
2015-10-25T01:46:17.326Z,3.55
2015-10-25T01:46:29.639Z,3.58
2015-10-25T01:46:41.951Z,3.51
2015-10-25T01:46:54.267Z,3.47
2015-10-25T01:47:06.595Z,3.55
2015-10-25T01:47:18.892Z,3.53
2015-10-25T01:47:31.204Z,3.53
2015-10-25T01:47:43.501Z,3.59
2015-10-25T01:47:55.801Z,3.53
2015-10-25T01:48:08.098Z,3.47
2015-10-25T01:48:20.410Z,3.5
2015-10-25T01:48:32.707Z,3.44
2015-10-25T01:48:45.035Z,3.48
2015-10-25T01:48:57.365Z,3.5
2015-10-25T01:49:09.662Z,3.51
2015-10-25T01:49:21.975Z,3.45
2015-10-25T01:49:34.272Z,3.48
2015-10-25T01:49:46.568Z,3.55
2015-10-25T01:49:58.885Z,3.51
2015-10-25T01:50:11.182Z,3.5
2015-10-25T01:50:23.510Z,3.55
2015-10-25T01:50:35.822Z,3.47
2015-10-25T01:50:48.135Z,3.56
2015-10-25T01:51:00.434Z,3.5
2015-10-25T01:51:12.746Z,3.53
2015-10-25T01:51:25.043Z,3.45
2015-10-25T01:51:37.356Z,3.47
2015-10-25T01:51:49.653Z,3.51
2015-10-25T01:52:01.952Z,3.45
2015-10-25T01:52:14.265Z,3.5
2015-10-25T01:52:26.593Z,3.42
2015-10-25T01:52:38.921Z,3.5
2015-10-25T01:52:51.218Z,3.53
2015-10-25T01:53:03.534Z,3.42
2015-10-25T01:53:15.830Z,3.32
2015-10-25T01:53:28.127Z,3.47
2015-10-25T01:53:40.440Z,3.47
2015-10-25T01:53:52.737Z,3.48
2015-10-25T01:54:05.068Z,3.37
2015-10-25T01:54:17.396Z,3.44
2015-10-25T01:54:29.708Z,3.42
2015-10-25T01:54:42.021Z,3.36
2015-10-25T01:54:54.318Z,3.42
2015-10-25T01:55:06.632Z,3.34
2015-10-25T01:55:18.929Z,3.53
2015-10-25T01:55:31.242Z,3.48
2015-10-25T01:55:43.539Z,3.47
2015-10-25T01:55:55.851Z,3.47
2015-10-25T01:56:08.181Z,3.47
2015-10-25T01:56:20.509Z,3.51
2015-10-25T01:56:32.806Z,3.48
2015-10-25T01:56:45.103Z,3.47
2015-10-25T01:56:57.400Z,3.42
2015-10-25T01:57:09.701Z,3.32
2015-10-25T01:57:22.013Z,3.48
2015-10-25T01:57:34.310Z,3.44
2015-10-25T01:57:46.638Z,3.44
2015-10-25T01:57:58.966Z,3.48
2015-10-25T01:58:11.266Z,3.47
2015-10-25T01:58:23.579Z,3.48
2015-10-25T01:58:35.876Z,3.44
2015-10-25T01:58:48.188Z,3.47
2015-10-25T01:59:00.469Z,3.42
2015-10-25T01:59:12.784Z,3.47
2015-10-25T01:59:25.081Z,3.32
2015-10-25T01:59:37.409Z,3.5
2015-10-25T01:59:49.721Z,3.47
2015-10-25T02:00:02.034Z,3.44
2015-10-25T02:00:14.334Z,3.42
2015-10-25T02:00:26.631Z,3.44
2015-10-25T02:00:38.943Z,3.45
2015-10-25T02:00:51.303Z,3.45
2015-10-25T02:01:03.459Z,3.45
2015-10-25T02:01:15.774Z,3.47
2015-10-25T02:01:28.087Z,3.42
2015-10-25T02:01:40.415Z,3.45
2015-10-25T02:01:52.727Z,3.47
2015-10-25T02:02:05.024Z,3.48
2015-10-25T02:02:17.323Z,3.45
2015-10-25T02:02:29.651Z,3.36
2015-10-25T02:02:41.948Z,3.45
2015-10-25T02:02:54.261Z,3.42
2015-10-25T02:03:06.589Z,3.47
2015-10-25T02:03:18.920Z,3.4
2015-10-25T02:03:31.248Z,3.5
2015-10-25T02:03:43.576Z,3.45
2015-10-25T02:03:55.920Z,3.44
2015-10-25T02:04:08.264Z,3.48
2015-10-25T02:04:20.564Z,3.44
2015-10-25T02:04:32.860Z,3.41
2015-10-25T02:04:45.157Z,3.4
2015-10-25T02:04:57.470Z,3.4
2015-10-25T02:05:09.767Z,3.36
2015-10-25T02:05:22.081Z,3.4
2015-10-25T02:05:34.394Z,3.41
2015-10-25T02:05:46.691Z,3.41
2015-10-25T02:05:58.987Z,3.37
2015-10-25T02:06:11.284Z,3.45
2015-10-25T02:06:23.600Z,3.48
2015-10-25T02:06:35.897Z,3.45
2015-10-25T02:06:48.240Z,3.41
2015-10-25T02:07:00.553Z,3.44
2015-10-25T02:07:12.881Z,3.37
2015-10-25T02:07:25.197Z,3.37
2015-10-25T02:07:37.540Z,3.34
2015-10-25T02:07:49.868Z,3.42
2015-10-25T02:08:02.197Z,3.34
2015-10-25T02:08:14.540Z,3.37
2015-10-25T02:08:26.839Z,3.36
2015-10-25T02:08:39.136Z,3.34
2015-10-25T02:08:51.433Z,3.37
2015-10-25T02:09:03.730Z,3.37
2015-10-25T02:09:16.027Z,3.31
2015-10-25T02:09:28.343Z,3.32
2015-10-25T02:09:40.640Z,3.26
2015-10-25T02:09:52.953Z,3.28
2015-10-25T02:10:05.249Z,3.25
2015-10-25T02:10:17.562Z,3.29
2015-10-25T02:10:29.862Z,3.4
2015-10-25T02:10:42.174Z,3.32
2015-10-25T02:10:54.487Z,3.23
2015-10-25T02:11:06.815Z,3.36
2015-10-25T02:11:19.127Z,3.34
2015-10-25T02:11:31.442Z,3.22
2015-10-25T02:11:43.770Z,3.32
2015-10-25T02:11:56.067Z,3.34
2015-10-25T02:12:08.364Z,3.28
2015-10-25T02:12:20.676Z,3.28
2015-10-25T02:12:32.976Z,3.21
2015-10-25T02:12:45.273Z,3.26
2015-10-25T02:12:57.570Z,3.29
2015-10-25T02:13:09.882Z,3.34
2015-10-25T02:13:22.179Z,3.23
2015-10-25T02:13:34.494Z,3.23
2015-10-25T02:13:46.822Z,3.13
2015-10-25T02:13:59.150Z,3.14
2015-10-25T02:14:11.463Z,3.16
2015-10-25T02:14:23.806Z,3.18
2015-10-25T02:14:35.981Z,3.08
2015-10-25T02:14:48.278Z,3.14
2015-10-25T02:15:00.591Z,3.16
2015-10-25T02:15:12.887Z,3.03
2015-10-25T02:15:25.184Z,3.11
2015-10-25T02:15:37.515Z,3.18
2015-10-25T02:15:49.797Z,3.04
2015-10-25T02:16:02.109Z,3.1
2015-10-25T02:16:14.406Z,3.1
2015-10-25T02:16:26.719Z,3.13
2015-10-25T02:16:39.018Z,3.1
2015-10-25T02:16:51.315Z,3.11
2015-10-25T02:17:03.628Z,3.11
2015-10-25T02:17:15.940Z,3.05
2015-10-25T02:17:28.253Z,3.08
2015-10-25T02:17:40.552Z,3.11
2015-10-25T02:17:52.849Z,3.07
2015-10-25T02:18:05.161Z,3.08
2015-10-25T02:18:17.474Z,3.04
2015-10-25T02:18:29.770Z,3.07
2015-10-25T02:18:42.071Z,3.08
2015-10-25T02:18:54.368Z,3.04
2015-10-25T02:19:06.665Z,3.01
2015-10-25T02:19:18.978Z,3.1
2015-10-25T02:19:31.290Z,3.01
2015-10-25T02:19:43.589Z,3.07
2015-10-25T02:19:55.901Z,3.04
2015-10-25T02:20:08.214Z,2.98
2015-10-25T02:20:20.526Z,3
2015-10-25T02:20:32.839Z,3.03
2015-10-25T02:20:45.154Z,3.04
2015-10-25T02:20:57.483Z,3
2015-10-25T02:21:09.811Z,3.1
2015-10-25T02:21:22.154Z,3.1
2015-10-25T02:21:34.498Z,3.01
2015-10-25T02:21:46.813Z,3.03
2015-10-25T02:21:59.110Z,3.03
2015-10-25T02:22:11.422Z,3.03
2015-10-25T02:22:23.719Z,3.05
2015-10-25T02:22:36.031Z,3
2015-10-25T02:22:48.316Z,2.98
2015-10-25T02:23:00.628Z,2.95
2015-10-25T02:23:12.925Z,2.97
2015-10-25T02:23:25.238Z,2.98
2015-10-25T02:23:37.550Z,3
2015-10-25T02:23:49.866Z,3.05
2015-10-25T02:24:02.178Z,3
2015-10-25T02:24:14.506Z,3.04
2015-10-25T02:24:26.850Z,2.93
2015-10-25T02:24:39.178Z,2.97
2015-10-25T02:24:51.509Z,3.01
2015-10-25T02:25:03.869Z,3.03
2015-10-25T02:25:16.212Z,3.01
2015-10-25T02:25:28.587Z,2.97
2015-10-25T02:25:40.884Z,2.98
2015-10-25T02:25:53.183Z,3.07
2015-10-25T02:26:05.480Z,3.01
2015-10-25T02:26:17.777Z,2.98
2015-10-25T02:26:30.074Z,2.97
2015-10-25T02:26:42.371Z,3
2015-10-25T02:26:54.670Z,2.93
2015-10-25T02:27:06.983Z,2.95
2015-10-25T02:27:19.280Z,2.93
2015-10-25T02:27:31.577Z,2.97
2015-10-25T02:27:43.874Z,2.97
2015-10-25T02:27:56.205Z,2.98
2015-10-25T02:28:08.517Z,2.93
2015-10-25T02:28:20.845Z,2.92
2015-10-25T02:28:33.158Z,2.9
2015-10-25T02:28:45.470Z,3.01
2015-10-25T02:28:57.801Z,2.89
2015-10-25T02:29:10.130Z,2.92
2015-10-25T02:29:22.426Z,2.93
2015-10-25T02:29:34.739Z,2.93
2015-10-25T02:29:47.038Z,2.93
2015-10-25T02:29:59.350Z,2.93
2015-10-25T02:30:11.678Z,2.89
2015-10-25T02:30:23.975Z,2.93
2015-10-25T02:30:36.288Z,2.9
2015-10-25T02:30:48.588Z,2.93
2015-10-25T02:31:00.900Z,2.92
2015-10-25T02:31:13.213Z,2.87
2015-10-25T02:31:25.525Z,2.9
2015-10-25T02:31:37.853Z,2.89
2015-10-25T02:31:50.200Z,2.92
2015-10-25T02:32:02.528Z,2.87
2015-10-25T02:32:14.856Z,2.89
2015-10-25T02:32:27.216Z,2.87
2015-10-25T02:32:39.544Z,2.86
2015-10-25T02:32:51.843Z,2.9
2015-10-25T02:33:04.155Z,2.87
2015-10-25T02:33:16.452Z,2.72
2015-10-25T02:33:28.749Z,2.8
2015-10-25T02:33:41.061Z,2.8
2015-10-25T02:33:53.361Z,2.8
2015-10-25T02:34:05.658Z,2.85
2015-10-25T02:34:17.971Z,2.74
2015-10-25T02:34:30.283Z,2.77
2015-10-25T02:34:42.580Z,2.8
2015-10-25T02:34:54.880Z,2.77
2015-10-25T02:35:07.177Z,2.72
2015-10-25T02:35:19.505Z,2.74
2015-10-25T02:35:31.833Z,2.69
2015-10-25T02:35:44.130Z,2.79
2015-10-25T02:35:56.445Z,2.69
2015-10-25T02:36:08.789Z,2.6
2015-10-25T02:36:21.117Z,2.6
2015-10-25T02:36:33.445Z,2.62
2015-10-25T02:36:45.820Z,2.67
2015-10-25T02:36:58.119Z,2.64
2015-10-25T02:37:10.416Z,2.68
2015-10-25T02:37:22.713Z,2.65
2015-10-25T02:37:35.010Z,2.57
2015-10-25T02:37:47.322Z,2.68
2015-10-25T02:37:59.622Z,2.53
2015-10-25T02:38:11.919Z,2.53
2015-10-25T02:38:24.247Z,2.53
2015-10-25T02:38:36.544Z,2.53
2015-10-25T02:38:48.841Z,2.5
2015-10-25T02:39:01.157Z,2.53
2015-10-25T02:39:13.453Z,2.53
2015-10-25T02:39:25.766Z,2.56
2015-10-25T02:39:38.094Z,2.5
2015-10-25T02:39:50.407Z,2.49
2015-10-25T02:40:02.738Z,2.49
2015-10-25T02:40:15.066Z,2.46
2015-10-25T02:40:27.410Z,2.44
2015-10-25T02:40:39.722Z,2.44
2015-10-25T02:40:52.003Z,2.43
2015-10-25T02:41:04.303Z,2.33
2015-10-25T02:41:16.616Z,2.44
2015-10-25T02:41:28.928Z,2.39
2015-10-25T02:41:41.225Z,2.35
2015-10-25T02:41:53.522Z,2.39
2015-10-25T02:42:05.821Z,2.44
2015-10-25T02:42:18.133Z,2.39
2015-10-25T02:42:30.446Z,2.26
2015-10-25T02:42:42.774Z,2.29
2015-10-25T02:42:55.086Z,2.35
2015-10-25T02:43:07.402Z,2.33
2015-10-25T02:43:19.746Z,2.31
2015-10-25T02:43:32.089Z,2.39
2015-10-25T02:43:44.418Z,2.24
2015-10-25T02:43:56.746Z,2.31
2015-10-25T02:44:09.045Z,2.25
2015-10-25T02:44:21.357Z,2.28
2015-10-25T02:44:33.638Z,2.25